Terminal Aerodrome Forecast
Issued by NWS

Home | Current Version | Previous Version | Text Only | Print | Product List | Glossary On
Versions: 1 2 3 4 5 6 7 8 9 10 11 12 13 14
000
FTUS45 KTFX 050936 AAA
TAFLWT
TAF AMD
KLWT 050936Z 0510/0606 35011KT P6SM SCT020 OVC035
      TEMPO 0510/0512 BKN020
     FM051200 35008KT P6SM -SHRA SCT025 OVC040
     FM052000 34009KT P6SM SCT070 BKN110=

USA.gov is the U.S. government's official web portal to all federal, state and local government web resources and services.